Observations for BRISTOL LULSGATE, United Kingdom (EGGD)

EGGD 180250Z AUTO 14008KT 9999 BKN009 OVC038 06/04 Q1020
EGGD 180220Z AUTO 16007KT 9999 BKN008 BKN043 06/04 Q1020
EGGD 180150Z AUTO 15008KT 9999 BKN010 06/04 Q1021   
EGGD 180120Z AUTO 16007KT 9999 FEW011 06/04 Q1021   
EGGD 180050Z AUTO 16008KT 9999 FEW007 06/05 Q1021   
EGGD 180020Z AUTO 16008KT 9999 FEW005 SCT009 06/05 Q1021
EGGD 172350Z AUTO 16005KT 9999 NCD 06/05 Q1021  
EGGD 172320Z AUTO 16006KT 9999 BKN041 06/05 Q1021   
EGGD 172250Z AUTO 15004KT 9999 BKN046 06/05 Q1021   
EGGD 172220Z AUTO 16007KT 9999 SCT040 06/04 Q1021   
EGGD 172150Z AUTO 17004KT 9999 BKN034 06/04 Q1021   
EGGD 172120Z AUTO 17005KT 9999 BKN033 BKN049 06/04 Q1021
EGGD 172050Z AUTO 15005KT 9999 NCD 05/04 Q1021  
EGGD 172020Z AUTO 16005KT 9999 NCD 05/03 Q1021  
EGGD 171950Z AUTO 17004KT 9999 NCD 06/03 Q1021  
EGGD 171920Z AUTO 18004KT 9999 NCD 05/03 Q1021  
EGGD 171850Z AUTO 15003KT 9999 NCD 05/03 Q1021  
EGGD 171820Z AUTO 19002KT 9999 NCD 05/03 Q1021  
EGGD 171750Z AUTO 23004KT 9999 NCD 06/03 Q1021  
EGGD 171720Z AUTO 23004KT 9999 NCD 06/04 Q1021  
EGGD 171650Z AUTO 24005KT 9999 NCD 06/04 Q1021  
EGGD 171620Z AUTO 23006KT 9999 NCD 07/04 Q1021  
EGGD 171550Z AUTO 24007KT 9999 NCD 08/03 Q1021  
EGGD 171520Z 24008KT 9999 FEW020 08/03 Q1021
EGGD 171450Z 24008KT 9999 FEW019 08/03 Q1021
EGGD 171420Z 24008KT 9999 FEW018 08/04 Q1021
EGGD 171350Z AUTO 24009KT 9999 SCT015 BKN020 08/04 Q1021
EGGD 171320Z 23007KT 9999 SCT011 SCT018 07/05 Q1021 
EGGD 171250Z 23007KT 190V260 9999 SCT005 BKN012 06/05 Q1022 
EGGD 171220Z 23008KT 9999 6000E -DZ BKN003 06/05 Q1022  
EGGD 171150Z 22009KT 9999 7000W VCSH SCT011 BKN034 06/04 Q1021  
EGGD 171120Z AUTO 22011KT 9999 FEW028 BKN034 OVC044 07/03 Q1021 
EGGD 171050Z AUTO 22010KT 9999 BKN044 06/03 Q1021   
EGGD 171020Z AUTO 21007KT 9999 NCD 06/03 Q1021  
EGGD 170950Z AUTO 20007KT 9999 FEW032 06/03 Q1021   
EGGD 170920Z AUTO 19007KT 9999 NCD 06/03 Q1020  
EGGD 170850Z AUTO 18006KT 9999 NCD 06/02 Q1020  
EGGD 170820Z AUTO 17006KT 9999 FEW037 05/02 Q1020   
EGGD 170750Z AUTO 17005KT 9999 SCT049 05/02 Q1020   
EGGD 170720Z AUTO 18005KT 9999 OVC046 04/02 Q1020   
EGGD 170650Z AUTO 17006KT 9999 FEW042 04/02 Q1020   
EGGD 170620Z AUTO 15007KT 9999 SCT039 04/02 Q1019   
EGGD 170550Z AUTO 15006KT 9999 NCD 04/02 Q1019  
EGGD 170520Z AUTO 15006KT 9999 NCD 04/02 Q1019  
EGGD 170450Z AUTO 16005KT 9999 NCD 04/02 Q1019  
EGGD 170420Z AUTO 15006KT 9999 NCD 04/02 Q1019  
EGGD 170350Z AUTO 13005KT 9999 NCD 04/02 Q1019  
EGGD 170320Z AUTO 12005KT 9999 FEW019 04/02 Q1019   
EGGD 170250Z AUTO 12005KT 9999 NCD 04/02 Q1020  
EGGD 170220Z AUTO 11006KT 9999 NCD 04/02 Q1020